Terminal Aerodrome Forecast
Issued by NWS

Home | Current Version | Previous Version | Text Only | Print | Product List | Glossary Off
Versions: 1 2 3 4 5 6 7 8 9 10 11 12 13 14 15

000
FTUS43 KBIS 072100 AAA
TAFDIK
TAF AMD
KDIK 072141Z 0722/0818 30015G25KT P6SM -TSRA BKN045CB
     FM072300 30018G25KT P6SM VCSH BKN080
     FM080200 30008KT P6SM SCT060=

USA.gov is the U.S. government's official web portal to all federal, state and local government web resources and services.